createdAt,value
2023-11-13T00:00:54.667Z,33.00
2023-11-13T00:03:22.964Z,27.60
2023-11-13T00:05:51.343Z,31.58
2023-11-13T00:08:19.587Z,33.57
2023-11-13T00:10:48.227Z,38.95
2023-11-13T00:13:16.660Z,36.42
2023-11-13T00:15:44.853Z,29.23
2023-11-13T00:18:13.724Z,30.98
2023-11-13T00:20:42.011Z,30.27
2023-11-13T00:23:10.088Z,23.98
2023-11-13T00:25:38.846Z,19.52
2023-11-13T00:28:07.490Z,24.77
2023-11-13T00:30:35.641Z,25.30
2023-11-13T00:33:03.859Z,22.00
2023-11-13T00:35:32.199Z,24.10
2023-11-13T00:38:00.687Z,26.25
2023-11-13T00:40:29.008Z,24.17
2023-11-13T00:42:57.807Z,17.67
2023-11-13T00:45:26.370Z,18.40
2023-11-13T00:47:54.541Z,16.55
2023-11-13T00:50:22.991Z,20.17
2023-11-13T00:52:51.668Z,10.90
2023-11-13T00:55:19.899Z,17.27
2023-11-13T00:57:48.209Z,18.07
2023-11-13T01:00:16.792Z,19.35
2023-11-13T01:02:44.943Z,15.68
2023-11-13T01:05:13.274Z,17.70
2023-11-13T01:07:41.639Z,18.85
2023-11-13T01:10:10.252Z,17.93
2023-11-13T01:12:39.158Z,21.48
2023-11-13T01:15:09.785Z,19.75
2023-11-13T01:17:38.009Z,17.80
2023-11-13T01:20:07.496Z,19.77
2023-11-13T01:22:35.976Z,21.37
2023-11-13T01:25:04.992Z,21.73
2023-11-13T01:27:33.803Z,28.88
2023-11-13T01:30:03.780Z,21.33
2023-11-13T01:32:34.875Z,21.67
2023-11-13T01:35:04.178Z,20.47
2023-11-13T01:37:34.461Z,22.10
2023-11-13T01:40:04.922Z,22.10
2023-11-13T01:42:33.038Z,20.83
2023-11-13T01:45:03.838Z,20.42
2023-11-13T01:47:32.991Z,19.40
2023-11-13T01:50:01.354Z,22.75
2023-11-13T01:52:31.832Z,21.55
2023-11-13T01:55:02.606Z,21.45
2023-11-13T01:57:34.892Z,14.88
2023-11-13T02:00:03.982Z,17.27
2023-11-13T02:02:42.267Z,16.92
2023-11-13T02:05:10.802Z,20.58
2023-11-13T02:07:43.651Z,10.40
2023-11-13T02:10:12.120Z,20.00
2023-11-13T02:12:40.704Z,18.67
2023-11-13T02:15:09.194Z,14.90
2023-11-13T02:17:37.412Z,20.92
2023-11-13T02:20:06.704Z,16.13
2023-11-13T02:22:35.306Z,13.38
2023-11-13T02:25:03.861Z,19.63
2023-11-13T02:27:33.428Z,20.23
2023-11-13T02:30:01.823Z,22.75
2023-11-13T02:32:32.097Z,19.83
2023-11-13T02:35:00.340Z,28.38
2023-11-13T02:37:28.753Z,20.87
2023-11-13T02:39:56.835Z,25.00
2023-11-13T02:42:25.149Z,16.75
2023-11-13T02:44:54.015Z,22.48
2023-11-13T02:47:22.141Z,19.92
2023-11-13T02:49:50.624Z,18.60
2023-11-13T02:52:18.976Z,12.90
2023-11-13T02:54:47.169Z,24.40
2023-11-13T02:57:15.427Z,25.17
2023-11-13T02:59:44.212Z,20.80
2023-11-13T03:02:13.984Z,22.53
2023-11-13T03:04:42.788Z,18.48
2023-11-13T03:07:11.711Z,16.67
2023-11-13T03:09:39.758Z,16.38
2023-11-13T03:12:08.745Z,14.35
2023-11-13T03:14:37.247Z,14.20
2023-11-13T03:17:05.612Z,11.30
2023-11-13T03:19:33.887Z,11.27
2023-11-13T03:22:02.566Z,12.75
2023-11-13T03:24:30.822Z,13.27
2023-11-13T03:26:58.970Z,14.23
2023-11-13T03:29:27.309Z,11.75
2023-11-13T03:31:56.423Z,16.23
2023-11-13T03:34:25.612Z,13.02
2023-11-13T03:36:53.922Z,17.08
2023-11-13T03:39:21.944Z,15.43
2023-11-13T03:41:50.276Z,17.10
2023-11-13T03:44:18.360Z,18.65
2023-11-13T03:46:46.574Z,23.63
2023-11-13T03:49:14.852Z,19.00
2023-11-13T03:51:43.130Z,17.63
2023-11-13T03:54:11.174Z,16.13
2023-11-13T03:57:05.318Z,10.50
2023-11-13T03:59:34.487Z,14.05
2023-11-13T04:02:04.126Z,22.52
2023-11-13T04:04:32.778Z,12.93
2023-11-13T04:07:01.136Z,8.98
2023-11-13T04:09:30.293Z,6.72
2023-11-13T04:11:58.530Z,9.02
2023-11-13T04:14:26.677Z,9.18
2023-11-13T04:16:55.885Z,7.33
2023-11-13T04:19:25.039Z,9.35
2023-11-13T04:21:53.376Z,9.88
2023-11-13T04:24:22.500Z,10.93
2023-11-13T04:26:50.690Z,11.63
2023-11-13T04:29:19.096Z,10.47
2023-11-13T04:31:47.207Z,13.43
2023-11-13T04:34:15.543Z,11.02
2023-11-13T04:36:44.157Z,10.98
2023-11-13T04:39:13.430Z,10.57
2023-11-13T04:41:41.481Z,10.43
2023-11-13T04:44:09.999Z,11.60
2023-11-13T04:46:38.281Z,9.18
2023-11-13T04:49:06.966Z,11.38
2023-11-13T04:51:35.836Z,9.88
2023-11-13T04:54:04.195Z,10.97
2023-11-13T04:56:32.533Z,11.45
2023-11-13T04:59:01.941Z,13.85
2023-11-13T05:01:30.179Z,10.13
2023-11-13T05:03:58.515Z,9.77
2023-11-13T05:06:28.018Z,6.77
2023-11-13T05:08:56.157Z,16.00
2023-11-13T05:11:26.343Z,9.68
2023-11-13T05:13:54.885Z,10.95
2023-11-13T05:16:26.423Z,13.10
2023-11-13T05:19:43.881Z,9.60
2023-11-13T05:22:12.459Z,9.55
2023-11-13T05:24:40.642Z,8.43
2023-11-13T05:27:08.888Z,9.45
2023-11-13T05:29:37.106Z,8.02
2023-11-13T05:32:05.256Z,9.30
2023-11-13T05:34:33.483Z,7.47
2023-11-13T05:37:02.386Z,5.30
2023-11-13T05:39:30.824Z,8.23
2023-11-13T05:41:58.948Z,8.23
2023-11-13T05:44:27.620Z,9.87
2023-11-13T05:46:58.237Z,8.75
2023-11-13T05:49:26.881Z,9.82
2023-11-13T05:51:55.304Z,9.70
2023-11-13T05:54:24.123Z,9.65
2023-11-13T05:56:52.837Z,13.60
2023-11-13T05:59:21.524Z,8.10
2023-11-13T06:01:50.999Z,12.30
2023-11-13T06:04:20.441Z,13.25
2023-11-13T06:06:52.265Z,13.40
2023-11-13T06:09:20.536Z,10.73
2023-11-13T06:11:48.658Z,10.70
2023-11-13T06:14:18.246Z,11.27
2023-11-13T06:16:46.394Z,12.90
2023-11-13T06:19:14.698Z,10.73
2023-11-13T06:21:43.215Z,8.43
2023-11-13T06:24:12.802Z,8.70
2023-11-13T06:26:40.993Z,8.10
2023-11-13T06:29:09.325Z,11.13
2023-11-13T06:31:38.193Z,12.10
2023-11-13T06:34:06.447Z,6.77
2023-11-13T06:36:34.776Z,6.90
2023-11-13T06:39:03.818Z,8.48
2023-11-13T06:41:32.011Z,9.85
2023-11-13T06:44:04.023Z,8.88
2023-11-13T06:46:32.383Z,9.40
2023-11-13T06:49:00.457Z,8.90
2023-11-13T06:51:28.781Z,7.32
2023-11-13T06:53:57.318Z,6.38
2023-11-13T06:56:26.036Z,5.60
2023-11-13T06:58:54.067Z,5.50
2023-11-13T07:01:22.473Z,6.75
2023-11-13T07:03:51.233Z,7.40
2023-11-13T07:06:19.751Z,8.75
2023-11-13T07:08:48.399Z,9.57
2023-11-13T07:11:19.487Z,7.43
2023-11-13T07:13:48.328Z,7.00
2023-11-13T07:16:17.931Z,7.78
2023-11-13T07:18:47.685Z,7.82
2023-11-13T07:21:16.648Z,7.25
2023-11-13T07:23:45.781Z,8.23
2023-11-13T07:26:14.271Z,8.23
2023-11-13T07:28:44.091Z,7.40
2023-11-13T07:31:40.599Z,7.13
2023-11-13T07:34:11.981Z,8.02
2023-11-13T07:36:40.098Z,7.40
2023-11-13T07:39:11.184Z,7.55
2023-11-13T07:41:39.398Z,9.90
2023-11-13T07:44:12.449Z,11.32
2023-11-13T07:46:40.761Z,8.35
2023-11-13T07:49:11.192Z,7.87
2023-11-13T07:51:39.240Z,14.05
2023-11-13T07:54:07.656Z,19.48
2023-11-13T07:56:37.126Z,15.95
2023-11-13T07:59:09.533Z,12.60
2023-11-13T08:01:39.441Z,6.70
2023-11-13T08:04:09.306Z,11.63
2023-11-13T08:06:37.598Z,8.68
2023-11-13T08:09:09.866Z,9.32
2023-11-13T08:11:38.348Z,6.03
2023-11-13T08:14:06.705Z,6.10
2023-11-13T08:16:35.051Z,5.80
2023-11-13T08:19:04.266Z,6.13
2023-11-13T08:21:32.675Z,6.85
2023-11-13T08:24:03.954Z,8.05
2023-11-13T08:26:34.261Z,5.60
2023-11-13T08:29:02.392Z,5.90
2023-11-13T08:31:30.886Z,5.60
2023-11-13T08:34:00.374Z,6.25
2023-11-13T08:36:30.327Z,8.02
2023-11-13T08:39:00.552Z,8.90
2023-11-13T08:41:29.682Z,5.47
2023-11-13T08:43:57.868Z,6.93
2023-11-13T08:46:27.120Z,5.15
2023-11-13T08:48:56.287Z,7.05
2023-11-13T08:51:30.629Z,6.53
2023-11-13T08:54:01.659Z,5.93
2023-11-13T08:56:31.062Z,8.38
2023-11-13T08:59:00.336Z,5.85
2023-11-13T09:01:30.151Z,6.03
2023-11-13T09:04:01.961Z,8.97
2023-11-13T09:06:33.307Z,6.47
2023-11-13T09:09:02.497Z,5.60
2023-11-13T09:11:31.367Z,5.72
2023-11-13T09:14:01.536Z,7.05
2023-11-13T09:16:29.998Z,7.50
2023-11-13T09:18:59.339Z,6.43
2023-11-13T09:21:27.547Z,6.40
2023-11-13T09:23:55.606Z,7.88
2023-11-13T09:26:24.081Z,5.40
2023-11-13T09:28:52.973Z,7.67
2023-11-13T09:31:21.030Z,5.75
2023-11-13T09:33:49.265Z,6.25
2023-11-13T09:36:18.663Z,5.32
2023-11-13T09:38:46.879Z,7.43
2023-11-13T09:41:17.852Z,4.93
2023-11-13T09:43:47.207Z,8.90
2023-11-13T09:46:18.046Z,8.10
2023-11-13T09:48:56.052Z,6.43
2023-11-13T09:51:30.562Z,11.00
2023-11-13T09:54:05.154Z,8.27
2023-11-13T09:56:34.100Z,7.85
2023-11-13T09:59:07.029Z,4.90
2023-11-13T10:01:37.115Z,6.47
2023-11-13T10:04:06.759Z,6.63
2023-11-13T10:06:41.056Z,7.73
2023-11-13T10:09:11.333Z,5.30
2023-11-13T10:11:39.632Z,6.28
2023-11-13T10:14:15.813Z,9.05
2023-11-13T10:16:57.775Z,5.35
2023-11-13T10:19:26.095Z,6.23
2023-11-13T10:21:58.213Z,6.72
2023-11-13T10:24:35.274Z,9.05
2023-11-13T10:27:14.334Z,6.55
2023-11-13T10:29:43.044Z,6.13
2023-11-13T10:32:11.808Z,6.80
2023-11-13T10:34:47.679Z,6.97
2023-11-13T10:37:17.823Z,5.78
2023-11-13T10:39:47.726Z,5.72
2023-11-13T10:42:24.794Z,5.55
2023-11-13T10:44:58.448Z,5.30
2023-11-13T10:47:34.020Z,7.63
2023-11-13T10:50:13.257Z,7.43
2023-11-13T10:52:42.579Z,8.13
2023-11-13T10:55:12.131Z,6.88
2023-11-13T10:57:41.012Z,6.73
2023-11-13T11:00:13.750Z,6.28
2023-11-13T11:02:47.104Z,8.00
2023-11-13T11:05:30.234Z,8.25
2023-11-13T11:08:01.689Z,11.27
2023-11-13T11:10:32.995Z,10.00
2023-11-13T11:13:10.682Z,5.25
2023-11-13T11:16:06.041Z,8.25
2023-11-13T11:18:52.878Z,7.38
2023-11-13T11:21:26.630Z,8.95
2023-11-13T11:24:13.350Z,5.63
2023-11-13T11:26:55.761Z,8.05
2023-11-13T11:29:43.623Z,11.63
2023-11-13T11:32:15.420Z,7.63
2023-11-13T11:34:49.755Z,9.63
2023-11-13T11:37:18.027Z,9.93
2023-11-13T11:39:51.311Z,8.10
2023-11-13T11:42:25.416Z,10.05
2023-11-13T11:45:00.435Z,7.18
2023-11-13T11:47:30.014Z,7.88
2023-11-13T11:50:00.596Z,6.57
2023-11-13T11:52:56.277Z,10.15
2023-11-13T11:55:27.479Z,7.97
2023-11-13T11:57:57.428Z,9.35
2023-11-13T12:00:29.737Z,10.43
2023-11-13T12:02:58.007Z,10.60
2023-11-13T12:05:26.291Z,7.78
2023-11-13T12:07:56.683Z,8.48
2023-11-13T12:10:25.054Z,11.00
2023-11-13T12:12:53.748Z,8.40
2023-11-13T12:15:22.834Z,8.53
2023-11-13T12:17:51.466Z,11.55
2023-11-13T12:20:22.720Z,9.18
2023-11-13T12:22:52.525Z,11.82
2023-11-13T12:25:21.076Z,8.80
2023-11-13T12:27:50.082Z,10.73
2023-11-13T12:30:20.927Z,10.60
2023-11-13T12:32:51.607Z,14.95
2023-11-13T12:35:21.905Z,12.18
2023-11-13T12:37:51.718Z,8.93
2023-11-13T12:40:23.390Z,11.30
2023-11-13T12:42:53.622Z,11.02
2023-11-13T12:45:26.023Z,8.30
2023-11-13T12:47:57.790Z,8.73
2023-11-13T12:50:27.381Z,9.77
2023-11-13T12:52:56.505Z,8.33
2023-11-13T12:55:26.771Z,9.02
2023-11-13T12:57:56.784Z,9.10
2023-11-13T13:00:28.174Z,10.18
2023-11-13T13:02:56.658Z,8.55
2023-11-13T13:05:30.620Z,14.37
2023-11-13T13:08:03.245Z,8.90
2023-11-13T13:10:35.695Z,9.88
2023-11-13T13:13:07.091Z,9.35
2023-11-13T13:15:36.808Z,9.93
2023-11-13T13:18:05.634Z,11.03
2023-11-13T13:20:35.239Z,9.77
2023-11-13T13:23:04.989Z,10.15
2023-11-13T13:25:37.359Z,9.73
2023-11-13T13:28:07.991Z,12.05
2023-11-13T13:30:38.409Z,16.50
2023-11-13T13:33:15.224Z,9.85
2023-11-13T13:35:45.559Z,11.95
2023-11-13T13:38:14.108Z,9.95
2023-11-13T13:40:46.667Z,12.05
2023-11-13T13:43:14.973Z,10.30
2023-11-13T13:45:46.673Z,8.13
2023-11-13T13:48:15.217Z,8.93
2023-11-13T13:50:43.776Z,7.07
2023-11-13T13:53:16.596Z,8.02
2023-11-13T13:55:45.900Z,10.47
2023-11-13T13:58:14.535Z,8.88
2023-11-13T14:00:43.729Z,14.52
2023-11-13T14:03:14.256Z,9.93
2023-11-13T14:05:47.903Z,12.18
2023-11-13T14:08:18.231Z,7.50
2023-11-13T14:10:53.444Z,10.88
2023-11-13T14:13:24.358Z,8.23
2023-11-13T14:16:04.458Z,10.18
2023-11-13T14:18:39.553Z,7.82
2023-11-13T14:21:10.885Z,9.77
2023-11-13T14:26:32.536Z,9.38
2023-11-13T14:29:01.271Z,11.48
2023-11-13T14:31:29.741Z,9.77
2023-11-13T14:33:58.337Z,11.00
2023-11-13T14:36:28.497Z,9.18
2023-11-13T14:38:56.824Z,9.05
2023-11-13T14:41:26.967Z,9.27
2023-11-13T14:43:55.326Z,11.93
2023-11-13T14:46:23.858Z,12.40
2023-11-13T14:48:51.923Z,10.65
2023-11-13T14:51:20.656Z,9.45
2023-11-13T14:53:49.042Z,13.50
2023-11-13T14:56:17.320Z,11.20
2023-11-13T14:58:45.717Z,11.17
2023-11-13T15:01:14.616Z,11.85
2023-11-13T15:03:44.362Z,15.25
2023-11-13T15:06:39.418Z,18.00
2023-11-13T15:09:07.723Z,9.57
2023-11-13T15:11:36.545Z,15.40
2023-11-13T15:14:07.044Z,14.70
2023-11-13T15:16:36.726Z,14.35
2023-11-13T15:19:05.347Z,13.70
2023-11-13T15:21:33.798Z,12.63
2023-11-13T15:24:02.661Z,13.87
2023-11-13T15:26:32.860Z,14.32
2023-11-13T15:29:01.173Z,15.82
2023-11-13T15:31:29.364Z,17.85
2023-11-13T15:33:57.636Z,16.45
2023-11-13T15:36:27.490Z,14.53
2023-11-13T15:38:57.159Z,15.77
2023-11-13T15:41:25.686Z,16.58
2023-11-13T15:43:53.715Z,14.38
2023-11-13T15:46:24.221Z,16.67
2023-11-13T15:48:53.792Z,15.57
2023-11-13T15:51:22.066Z,16.30
2023-11-13T15:53:50.929Z,16.35
2023-11-13T15:56:21.697Z,15.52
2023-11-13T15:58:50.590Z,15.43
2023-11-13T16:01:18.755Z,14.63
2023-11-13T16:03:47.378Z,20.50
2023-11-13T16:06:16.310Z,27.58
2023-11-13T16:08:44.586Z,22.88
2023-11-13T16:11:13.527Z,21.75
2023-11-13T16:13:45.542Z,18.63
2023-11-13T16:16:15.009Z,22.80
2023-11-13T16:18:43.179Z,33.10
2023-11-13T16:21:19.069Z,43.85
2023-11-13T16:23:48.121Z,32.47
2023-11-13T16:26:16.928Z,27.77
2023-11-13T16:28:45.228Z,23.40
2023-11-13T16:31:13.557Z,26.92
2023-11-13T16:33:42.181Z,33.67
2023-11-13T16:36:10.975Z,29.88
2023-11-13T16:38:41.539Z,31.30
2023-11-13T16:41:12.780Z,34.63
2023-11-13T16:43:41.671Z,28.75
2023-11-13T16:46:12.790Z,32.13
2023-11-13T16:48:41.371Z,28.52
2023-11-13T16:51:09.850Z,33.70
2023-11-13T16:53:39.299Z,36.15
2023-11-13T16:56:07.870Z,44.22
2023-11-13T16:58:36.945Z,73.97
2023-11-13T17:01:08.338Z,54.78
2023-11-13T17:03:38.081Z,56.10
2023-11-13T17:06:09.657Z,51.47
2023-11-13T17:08:38.059Z,39.08
2023-11-13T17:11:11.109Z,33.63
2023-11-13T17:13:40.195Z,27.60
2023-11-13T17:16:10.138Z,29.63
2023-11-13T17:18:39.553Z,35.05
2023-11-13T17:21:08.598Z,45.47
2023-11-13T17:23:37.274Z,45.17
2023-11-13T17:26:05.645Z,43.50
2023-11-13T17:28:35.881Z,45.50
2023-11-13T17:31:04.421Z,43.88
2023-11-13T17:33:33.088Z,43.13
2023-11-13T17:36:03.821Z,39.40
2023-11-13T17:38:32.222Z,35.97
2023-11-13T17:41:02.304Z,36.87
2023-11-13T17:43:31.216Z,42.75
2023-11-13T17:45:59.631Z,39.03
2023-11-13T17:48:28.210Z,33.92
2023-11-13T17:50:57.396Z,35.15
2023-11-13T17:53:26.364Z,37.23
2023-11-13T17:55:54.696Z,29.23
2023-11-13T17:58:24.015Z,33.42
2023-11-13T18:00:55.422Z,35.90
2023-11-13T18:03:24.428Z,33.40
2023-11-13T18:05:54.773Z,40.17
2023-11-13T18:08:24.153Z,39.40
2023-11-13T18:10:57.233Z,42.78
2023-11-13T18:13:27.579Z,44.67
2023-11-13T18:15:56.502Z,31.00
2023-11-13T18:18:27.495Z,32.50
2023-11-13T18:20:56.871Z,33.10
2023-11-13T18:23:27.300Z,30.48
2023-11-13T18:26:01.090Z,27.60
2023-11-13T18:28:30.016Z,25.33
2023-11-13T18:30:59.747Z,29.90
2023-11-13T18:33:30.946Z,31.63
2023-11-13T18:35:59.794Z,32.35
2023-11-13T18:38:28.394Z,41.95
2023-11-13T18:40:58.256Z,75.43
2023-11-13T18:43:26.477Z,60.80
2023-11-13T18:45:56.675Z,75.13
2023-11-13T18:48:25.452Z,40.50
2023-11-13T18:50:53.672Z,40.03
2023-11-13T18:53:21.951Z,34.15
2023-11-13T18:55:50.605Z,39.40
2023-11-13T18:58:19.747Z,39.20
2023-11-13T19:00:49.057Z,43.72
2023-11-13T19:03:17.865Z,41.28
2023-11-13T19:05:46.097Z,42.75
2023-11-13T19:08:15.435Z,38.30
2023-11-13T19:10:44.514Z,34.97
2023-11-13T19:13:13.497Z,31.92
2023-11-13T19:15:43.783Z,37.90
2023-11-13T19:18:12.819Z,31.63
2023-11-13T19:20:43.192Z,34.10
2023-11-13T19:23:12.524Z,43.78
2023-11-13T19:25:43.215Z,30.40
2023-11-13T19:28:12.296Z,27.80
2023-11-13T19:30:40.532Z,35.20
2023-11-13T19:33:08.782Z,26.47
2023-11-13T19:35:37.449Z,25.08
2023-11-13T19:38:06.800Z,31.52
2023-11-13T19:40:34.955Z,29.15
2023-11-13T19:43:04.626Z,25.85
2023-11-13T19:45:35.932Z,27.43
2023-11-13T19:48:05.185Z,24.83
2023-11-13T19:50:35.879Z,28.30
2023-11-13T19:53:06.488Z,26.90
2023-11-13T19:55:35.885Z,27.70
2023-11-13T19:58:06.103Z,30.00
2023-11-13T20:00:35.486Z,25.85
2023-11-13T20:03:06.270Z,28.08
2023-11-13T20:05:35.258Z,27.80
2023-11-13T20:08:05.608Z,27.15
2023-11-13T20:10:34.187Z,29.53
2023-11-13T20:13:03.656Z,30.77
2023-11-13T20:15:32.391Z,36.70
2023-11-13T20:18:01.074Z,30.55
2023-11-13T20:20:30.067Z,35.90
2023-11-13T20:22:58.470Z,46.73
2023-11-13T20:25:27.986Z,40.88
2023-11-13T20:27:56.807Z,41.88
2023-11-13T20:30:26.770Z,45.30
2023-11-13T20:32:55.561Z,42.00
2023-11-13T20:35:23.882Z,44.23
2023-11-13T20:37:52.431Z,40.55
2023-11-13T20:40:20.703Z,43.42
2023-11-13T20:42:49.013Z,49.03
2023-11-13T20:45:17.409Z,55.22
2023-11-13T20:47:46.622Z,56.17
2023-11-13T20:50:15.653Z,46.97
2023-11-13T20:52:44.728Z,32.63
2023-11-13T20:55:14.178Z,38.67
2023-11-13T20:57:42.278Z,38.38
2023-11-13T21:00:12.900Z,45.30
2023-11-13T21:02:41.796Z,30.70
2023-11-13T21:05:10.655Z,31.58
2023-11-13T21:07:39.821Z,40.38
2023-11-13T21:10:11.664Z,34.92
2023-11-13T21:12:39.824Z,40.17
2023-11-13T21:15:09.957Z,24.92
2023-11-13T21:17:38.250Z,31.00
2023-11-13T21:20:11.164Z,36.63
2023-11-13T21:22:41.662Z,35.40
2023-11-13T21:25:15.956Z,28.97
2023-11-13T21:27:45.995Z,35.15
2023-11-13T21:30:15.093Z,26.55
2023-11-13T21:32:44.523Z,28.17
2023-11-13T21:35:13.310Z,27.55
2023-11-13T21:37:42.917Z,28.90
2023-11-13T21:40:15.144Z,29.20
2023-11-13T21:42:47.714Z,21.15
2023-11-13T21:45:18.395Z,34.88
2023-11-13T21:47:47.962Z,32.28
2023-11-13T21:50:17.336Z,33.87
2023-11-13T21:52:46.472Z,26.52
2023-11-13T21:55:14.981Z,28.02
2023-11-13T21:57:43.620Z,27.05
2023-11-13T22:00:12.727Z,29.48
2023-11-13T22:02:41.572Z,34.13
2023-11-13T22:05:10.932Z,37.40
2023-11-13T22:07:42.399Z,38.38
2023-11-13T22:10:13.109Z,37.97
2023-11-13T22:12:42.822Z,44.20
2023-11-13T22:15:19.866Z,42.03
2023-11-13T22:17:48.364Z,44.22
2023-11-13T22:20:18.419Z,46.50
2023-11-13T22:22:47.620Z,51.45
2023-11-13T22:25:16.934Z,57.10
2023-11-13T22:27:45.702Z,62.30
2023-11-13T22:30:14.975Z,65.63
2023-11-13T22:32:44.115Z,57.13
2023-11-13T22:35:12.425Z,40.15
2023-11-13T22:37:41.687Z,39.72
2023-11-13T22:40:10.928Z,28.97
2023-11-13T22:42:39.458Z,30.55
2023-11-13T22:45:08.160Z,33.00
2023-11-13T22:47:36.938Z,30.67
2023-11-13T22:50:09.400Z,28.65
2023-11-13T22:52:39.366Z,30.37
2023-11-13T22:55:09.770Z,27.70
2023-11-13T22:57:37.877Z,31.20
2023-11-13T23:00:19.082Z,24.50
2023-11-13T23:02:47.203Z,27.70
2023-11-13T23:05:15.665Z,29.33
2023-11-13T23:07:45.458Z,22.17
2023-11-13T23:10:14.563Z,24.50
2023-11-13T23:12:43.268Z,25.17
2023-11-13T23:15:11.398Z,21.15
2023-11-13T23:17:41.802Z,22.83
2023-11-13T23:20:10.787Z,26.73
2023-11-13T23:22:39.745Z,22.95
2023-11-13T23:25:09.748Z,23.73
2023-11-13T23:27:39.178Z,25.45
2023-11-13T23:30:09.798Z,22.53
2023-11-13T23:32:39.173Z,20.05
2023-11-13T23:35:08.410Z,12.43
2023-11-13T23:37:37.555Z,16.38
2023-11-13T23:40:06.996Z,19.08
2023-11-13T23:42:35.767Z,20.53
2023-11-13T23:45:06.127Z,17.30
2023-11-13T23:47:36.459Z,17.23
2023-11-13T23:50:09.266Z,20.67
2023-11-13T23:52:39.100Z,25.02
2023-11-13T23:55:09.020Z,19.87
2023-11-13T23:57:37.551Z,17.73
